Time;durP1;ratioP1;P1;durP2;ratioP2;P2;SDS_P1;SDS_P2;PMS_P1;PMS_P2;Temp;Humidity;BMP_temperature;BMP_pressure;BME280_temperature;BME280_humidity;BME280_pressure;Samples;Min_cycle;Max_cycle;Signal;HPM_P1;HPM_P2
2022/12/17 13:06:49;;;;;;;42.67;23.75;;;-1.20;99.90;;;-2.84;87.60;102290.94;5024565;28;20049;-71
2022/12/17 13:09:15;;;;;;;48.22;27.10;;;-1.20;99.90;;;-2.99;88.47;102283.56;5020122;28;20646;-75
2022/12/17 13:11:46;;;;;;;53.75;30.35;;;-1.30;99.90;;;-3.17;88.50;102281.25;5019392;28;20037;-71
2022/12/17 13:14:22;;;;;;;69.57;41.22;;;-1.40;99.90;;;-3.20;89.11;102283.69;5021993;28;20025;-71
2022/12/17 13:17:06;;;;;;;50.80;28.20;;;-1.40;99.90;;;-3.18;89.11;102284.63;5018728;28;20060;-71
2022/12/17 13:19:38;;;;;;;55.30;30.27;;;-1.50;99.90;;;-3.25;89.63;102282.66;5004600;28;20537;-73
2022/12/17 13:22:16;;;;;;;48.17;28.08;;;-1.50;99.90;;;-3.32;89.81;102283.28;5020176;28;20030;-73
2022/12/17 13:24:47;;;;;;;66.43;31.45;;;-1.60;99.90;;;-3.44;89.67;102298.28;5010675;28;20124;-73
2022/12/17 13:27:34;;;;;;;40.40;23.95;;;-1.70;99.90;;;-3.70;89.32;102298.22;5003849;28;20021;-72
2022/12/17 13:30:21;;;;;;;48.00;27.00;;;-1.90;99.90;;;-3.86;89.12;102298.47;5020977;28;20034;-74
2022/12/17 13:33:20;;;;;;;51.55;27.95;;;-2.10;99.90;;;-4.08;88.34;102294.19;5018545;28;20056;-73
2022/12/17 13:35:55;;;;;;;54.97;30.25;;;-2.30;99.90;;;-4.40;89.01;102289.56;4984575;28;20121;-73
2022/12/17 13:38:48;;;;;;;52.60;28.98;;;-2.50;99.90;;;-4.46;88.33;102298.72;5019792;28;20033;-72
2022/12/17 13:41:18;;;;;;;56.65;30.13;;;-2.60;99.90;;;-4.76;89.17;102296.66;5023135;28;20451;-73
2022/12/17 13:43:53;;;;;;;67.05;32.80;;;-2.70;99.90;;;-4.87;89.55;102306.47;5003771;28;20451;-73
2022/12/17 13:46:44;;;;;;;60.72;31.98;;;-2.80;99.90;;;-4.90;90.22;102310.59;5032788;28;20041;-73
2022/12/17 13:49:26;;;;;;;61.90;31.67;;;-3.00;99.90;;;-5.11;91.09;102308.91;4989962;28;20049;-74
2022/12/17 13:52:28;;;;;;;57.20;30.35;;;-3.10;99.90;;;-5.16;91.70;102305.25;5021362;28;21311;-72
2022/12/17 13:55:09;;;;;;;67.53;31.75;;;-3.20;99.90;;;-5.39;91.65;102307.69;4956919;28;20255;-72
2022/12/17 13:57:37;;;;;;;64.20;29.35;;;-3.30;99.90;;;-5.51;91.83;102306.28;4996204;28;20041;-73
2022/12/17 14:00:04;;;;;;;62.50;29.55;;;-3.40;99.90;;;-5.64;91.82;102304.84;5001544;28;20026;-72
2022/12/17 14:02:34;;;;;;;56.35;27.90;;;-3.60;99.90;;;-5.73;92.31;102305.31;5018568;28;20025;-73
2022/12/17 14:05:06;;;;;;;43.85;23.27;;;-3.80;99.90;;;-5.93;91.66;102299.28;5002559;28;20372;-73
2022/12/17 14:07:37;;;;;;;54.47;27.33;;;-3.90;99.90;;;-6.18;91.18;102297.28;4999834;28;20512;-73
2022/12/17 14:10:13;;;;;;;55.03;27.52;;;-4.10;99.90;;;-6.31;91.23;102292.38;5002976;28;20030;-72
2022/12/17 14:12:39;;;;;;;48.00;24.77;;;-4.20;99.90;;;-6.45;91.17;102294.31;5019311;28;20030;-73
2022/12/17 14:15:20;;;;;;;50.85;25.27;;;-4.20;99.90;;;-6.50;91.57;102299.22;5001727;28;20033;-72
2022/12/17 14:17:48;;;;;;;43.47;23.20;;;-4.30;99.90;;;-6.50;93.46;102306.00;5022044;28;20497;-72
2022/12/17 14:20:28;;;;;;;38.95;21.55;;;-4.30;99.90;;;-6.48;93.66;102307.84;5002953;28;20041;-72
2022/12/17 14:23:28;;;;;;;39.13;21.08;;;-4.40;99.90;;;-6.62;93.45;102313.97;5000624;28;20026;-73
2022/12/17 14:25:55;;;;;;;352.33;16.45;;;-4.60;99.90;;;-6.84;93.40;102315.47;4999618;28;20647;-72
2022/12/17 14:28:43;;;;;;;36.88;19.95;;;-4.80;99.90;;;-7.07;92.57;102316.88;5001877;28;20364;-73
2022/12/17 14:31:28;;;;;;;32.15;17.35;;;-5.00;99.90;;;-7.37;91.24;102308.50;5016167;28;20030;-72
2022/12/17 14:34:09;;;;;;;127.85;72.63;;;-5.20;99.90;;;-7.47;91.51;102311.41;5002216;28;20394;-73
2022/12/17 14:36:38;;;;;;;89.18;46.80;;;-5.20;99.90;;;-7.42;92.77;102308.28;5000023;28;20030;-72
2022/12/17 14:39:29;;;;;;;131.57;21.58;;;-5.20;99.90;;;-7.47;92.72;102316.53;5000680;28;20033;-72
2022/12/17 14:42:27;;;;;;;33.95;18.35;;;-5.40;99.90;;;-7.66;92.79;102312.97;5002378;28;20019;-72
2022/12/17 14:45:02;;;;;;;35.90;19.00;;;-5.60;99.90;;;-7.91;91.97;102310.78;5005783;28;20037;-72
2022/12/17 14:47:32;;;;;;;37.63;20.33;;;-5.70;99.90;;;-7.98;92.18;102312.94;5019314;28;20574;-73
2022/12/17 14:50:21;;;;;;;38.38;20.63;;;-5.80;99.90;;;-8.08;92.42;102319.22;5018464;28;20072;-73
2022/12/17 14:52:55;;;;;;;45.10;24.35;;;-5.90;99.90;;;-8.19;91.91;102327.97;5007405;28;20075;-72
2022/12/17 14:55:36;;;;;;;39.90;21.40;;;-6.00;99.90;;;-8.32;91.48;102327.28;5002081;28;20037;-73
2022/12/17 14:58:11;;;;;;;41.42;20.83;;;-6.20;99.90;;;-8.53;91.06;102332.13;5018511;28;20107;-73
2022/12/17 15:01:06;;;;;;;66.47;32.92;;;-6.30;99.90;;;-8.53;91.11;102329.56;5018241;28;20025;-72
2022/12/17 15:03:42;;;;;;;48.50;27.77;;;-6.30;99.90;;;-8.50;92.24;102334.84;5011474;28;20062;-74
2022/12/17 15:06:16;;;;;;;42.15;21.05;;;-6.30;99.90;;;-8.59;92.37;102336.88;5001417;28;20064;-72
2022/12/17 15:08:49;;;;;;;36.30;20.00;;;-6.40;99.90;;;-8.67;91.73;102345.75;5004263;28;20028;-73
2022/12/17 15:11:19;;;;;;;27.10;16.40;;;-6.50;99.90;;;-8.81;92.36;102338.97;5003837;28;20112;-72
2022/12/17 15:13:45;;;;;;;23.25;13.10;;;-6.60;99.90;;;-8.93;91.44;102341.69;5007725;28;20030;-72
2022/12/17 15:16:12;;;;;;;24.30;14.35;;;-6.70;99.90;;;-9.06;91.37;102337.53;4986086;28;20034;-73
2022/12/17 15:18:38;;;;;;;21.35;11.60;;;-6.80;99.90;;;-9.15;90.67;102344.66;5003010;28;20026;-72
2022/12/17 15:21:04;;;;;;;31.92;18.40;;;-6.90;99.90;;;-9.26;90.14;102350.78;5015731;28;20032;-74
2022/12/17 15:23:31;;;;;;;32.55;17.58;;;-7.00;99.90;;;-9.36;90.52;102341.72;5002626;28;20128;-72
2022/12/17 15:25:57;;;;;;;25.88;14.70;;;-7.10;99.90;;;-9.52;90.25;102345.00;5000102;28;20048;-73
2022/12/17 15:28:26;;;;;;;28.63;15.00;;;-7.20;99.90;;;-9.66;89.05;102335.63;5002209;28;20022;-72
2022/12/17 15:30:51;;;;;;;32.00;16.88;;;-7.30;99.90;;;-9.81;88.75;102340.66;5002136;28;20084;-72
2022/12/17 15:33:17;;;;;;;34.42;17.55;;;-7.40;99.90;;;-9.83;89.57;102343.09;5015237;28;20661;-72
2022/12/17 15:35:43;;;;;;;26.90;14.40;;;-7.40;99.90;;;-9.84;89.45;102345.56;5018998;28;20052;-72
2022/12/17 15:38:11;;;;;;;28.85;14.88;;;-7.50;99.90;;;-9.95;89.16;102342.34;5003104;28;20494;-72
2022/12/17 15:40:38;;;;;;;30.42;15.73;;;-7.70;99.90;;;-10.07;88.81;102333.94;5014885;28;20496;-72
2022/12/17 15:43:12;;;;;;;29.23;15.52;;;-7.80;99.90;;;-10.18;89.12;102344.31;5002639;28;20458;-73
2022/12/17 15:45:47;;;;;;;28.65;15.50;;;-7.90;99.90;;;-10.26;88.63;102345.50;5020223;28;20030;-73
2022/12/17 15:48:19;;;;;;;31.17;16.33;;;-7.90;99.90;;;-10.32;87.89;102345.16;5003078;28;20445;-71
2022/12/17 15:50:47;;;;;;;29.70;15.73;;;-8.00;99.90;;;-10.35;88.10;102348.38;5005394;28;20394;-72
2022/12/17 15:53:13;;;;;;;34.78;16.90;;;-8.10;99.90;;;-10.47;88.25;102347.59;5005618;28;20041;-72
2022/12/17 15:55:39;;;;;;;30.38;15.63;;;-8.10;99.90;;;-10.47;87.85;102345.06;4990724;28;20129;-73
2022/12/17 15:58:07;;;;;;;27.15;15.98;;;-8.10;99.90;;;-10.49;88.00;102348.28;4994008;28;20152;-71
2022/12/17 16:00:33;;;;;;;28.38;15.88;;;-8.10;99.90;;;-10.47;88.91;102349.22;5004835;28;20117;-72
2022/12/17 16:02:59;;;;;;;28.45;14.73;;;-8.10;99.90;;;-10.50;89.96;102349.06;5004080;28;20030;-73
2022/12/17 16:05:25;;;;;;;24.50;13.30;;;-8.10;99.90;;;-10.48;90.47;102348.38;4989986;28;20033;-72
2022/12/17 16:07:52;;;;;;;32.10;16.77;;;-8.00;99.90;;;-10.37;91.38;102343.97;4994637;28;20026;-73
2022/12/17 16:10:18;;;;;;;37.55;21.30;;;-8.00;99.90;;;-10.24;92.41;102350.69;5020606;28;20090;-72
2022/12/17 16:12:44;;;;;;;33.10;17.08;;;-7.90;99.90;;;-10.33;93.84;102356.13;5022452;28;20731;-72
2022/12/17 16:15:13;;;;;;;35.15;18.33;;;-8.00;99.90;;;-10.33;93.83;102359.53;5005066;28;20033;-71
2022/12/17 16:17:39;;;;;;;30.02;16.83;;;-8.00;99.90;;;-10.41;93.60;102357.28;5008295;28;20498;-72
2022/12/17 16:20:06;;;;;;;33.65;17.38;;;-8.10;99.90;;;-10.44;93.56;102354.56;5004336;28;20044;-72
2022/12/17 16:22:32;;;;;;;34.45;18.13;;;-8.10;99.90;;;-10.42;94.00;102358.94;5022093;28;20076;-73
2022/12/17 16:24:58;;;;;;;30.98;17.15;;;-7.10;99.90;;;-10.51;92.93;102366.00;5000251;28;20045;-73
2022/12/17 16:27:24;;;;;;;30.05;16.67;;;-8.20;99.90;;;-10.53;92.94;102365.03;5012051;28;20553;-72
2022/12/17 16:29:49;;;;;;;28.63;13.75;;;-8.20;99.90;;;-10.61;92.56;102372.13;5023817;28;20072;-71
2022/12/17 16:32:16;;;;;;;27.40;14.20;;;-8.30;99.90;;;-10.69;92.39;102372.41;5003936;28;20100;-72
2022/12/17 16:34:43;;;;;;;25.42;13.15;;;-8.40;99.90;;;-10.79;91.70;102376.03;4987968;28;20054;-72
2022/12/17 16:37:10;;;;;;;23.77;13.63;;;-8.50;99.90;;;-10.84;91.65;102382.47;5018642;28;20033;-72
2022/12/17 16:39:35;;;;;;;27.25;14.27;;;-8.50;99.90;;;-10.91;90.73;102376.09;4987973;28;20383;-72
2022/12/17 16:42:01;;;;;;;30.30;15.40;;;-8.60;99.90;;;-10.96;90.74;102372.34;5003440;28;20037;-73
2022/12/17 16:44:27;;;;;;;30.67;16.38;;;-8.60;99.90;;;-11.02;90.78;102377.03;5003395;28;20026;-72
2022/12/17 16:46:53;;;;;;;35.92;17.00;;;-8.70;99.90;;;-11.07;90.20;102378.41;5022205;28;20046;-72
2022/12/17 16:49:22;;;;;;;28.30;15.13;;;-8.70;99.90;;;-11.12;89.48;102378.09;4987731;28;20071;-71
2022/12/17 16:51:54;;;;;;;37.63;18.83;;;-8.80;99.90;;;-11.19;89.61;102375.88;4994573;28;20029;-72
2022/12/17 16:54:26;;;;;;;36.47;19.02;;;-8.80;99.90;;;-11.26;88.88;102369.50;5003317;28;20383;-72
2022/12/17 16:56:53;;;;;;;32.00;16.35;;;-8.80;99.90;;;-11.11;90.10;102381.50;5003762;28;20084;-72
2022/12/17 16:59:19;;;;;;;50.22;25.05;;;-8.70;99.90;;;-10.93;91.31;102377.63;5004842;28;20068;-71
2022/12/17 17:01:48;;;;;;;33.78;16.45;;;-8.70;99.90;;;-11.04;92.08;102379.47;5003242;28;20041;-72
2022/12/17 17:04:19;;;;;;;28.55;15.32;;;-8.60;99.90;;;-10.97;92.40;102386.75;4989732;28;20025;-72
2022/12/17 17:06:51;;;;;;;28.08;14.50;;;-8.60;99.90;;;-11.02;93.08;102377.91;5003877;28;20029;-72
2022/12/17 17:09:18;;;;;;;29.80;14.68;;;-8.70;99.90;;;-11.13;92.86;102386.47;5020738;28;20042;-72
2022/12/17 17:11:45;;;;;;;27.30;13.55;;;-8.80;99.90;;;-11.24;92.84;102390.84;5004184;28;20606;-72
2022/12/17 17:14:11;;;;;;;28.60;14.20;;;-8.90;99.90;;;-11.33;91.90;102382.59;5004969;28;20092;-72
2022/12/17 17:16:37;;;;;;;30.02;14.38;;;-9.00;99.90;;;-11.41;91.91;102381.16;5005035;28;20025;-72
2022/12/17 17:19:04;;;;;;;25.17;13.45;;;-9.10;99.90;;;-11.51;91.53;102382.22;5018143;28;20029;-72
2022/12/17 17:21:34;;;;;;;23.33;13.20;;;-9.20;99.90;;;-11.59;90.69;102385.88;5002532;28;20486;-72
2022/12/17 17:24:14;;;;;;;27.48;14.10;;;-9.20;99.90;;;-11.68;90.11;102392.84;5004422;28;20025;-72
2022/12/17 17:26:41;;;;;;;36.58;16.02;;;-9.30;99.90;;;-11.76;89.51;102388.09;5010880;28;20529;-72
2022/12/17 17:29:07;;;;;;;34.95;16.48;;;-9.30;99.90;;;-11.71;89.96;102390.97;5003638;28;20048;-73
2022/12/17 17:31:34;;;;;;;36.13;17.25;;;-9.30;99.90;;;-11.69;90.80;102402.13;5006449;28;20036;-72
2022/12/17 17:34:12;;;;;;;31.98;16.02;;;-9.30;99.90;;;-11.60;91.00;102397.69;5019699;28;20072;-72
2022/12/17 17:36:39;;;;;;;31.38;15.65;;;-9.30;99.90;;;-11.62;90.26;102398.34;5018707;28;20030;-71
2022/12/17 17:39:05;;;;;;;38.08;17.98;;;-9.30;99.90;;;-11.68;91.48;102398.81;5018852;28;20022;-72
2022/12/17 17:41:33;;;;;;;37.70;18.80;;;-9.30;99.90;;;-11.66;90.75;102407.44;5020946;28;20030;-72
2022/12/17 17:44:18;;;;;;;41.13;20.25;;;-9.30;99.90;;;-11.62;91.59;102413.59;5003963;28;20029;-72
2022/12/17 17:46:44;;;;;;;42.78;19.52;;;-9.30;99.90;;;-11.69;91.37;102416.50;5002612;28;20083;-72
2022/12/17 17:49:10;;;;;;;35.60;17.60;;;-9.30;99.90;;;-11.66;91.49;102419.25;5017635;28;20029;-73
2022/12/17 17:51:40;;;;;;;47.17;18.92;;;-9.30;99.90;;;-11.66;91.55;102425.22;5004725;28;20645;-72
2022/12/17 17:54:07;;;;;;;33.90;16.70;;;-9.30;99.90;;;-11.66;91.58;102425.22;5003906;28;20040;-72
2022/12/17 17:56:36;;;;;;;37.72;16.60;;;-9.30;99.90;;;-11.63;91.75;102430.50;5002381;28;20549;-73
2022/12/17 17:59:18;;;;;;;32.65;16.38;;;-9.30;99.90;;;-11.55;92.68;102433.59;5004586;28;20452;-73
2022/12/17 18:01:48;;;;;;;40.60;18.58;;;-9.20;99.90;;;-11.52;92.32;102433.81;5018679;28;20030;-72
2022/12/17 18:04:22;;;;;;;33.90;16.73;;;-9.20;99.90;;;-11.53;92.86;102442.22;5004637;28;20167;-72
2022/12/17 18:06:48;;;;;;;25.23;11.70;;;-9.20;99.90;;;-11.58;92.71;102435.91;5004251;28;20022;-72
2022/12/17 18:09:15;;;;;;;30.40;15.45;;;-9.20;99.90;;;-11.51;93.64;102429.59;5000946;28;20537;-73
2022/12/17 18:11:43;;;;;;;33.65;16.65;;;-9.20;99.90;;;-11.51;94.10;102439.78;4985059;28;20082;-71
2022/12/17 18:14:11;;;;;;;32.53;16.35;;;-9.20;99.90;;;-11.49;93.34;102434.00;5002009;28;20101;-72
2022/12/17 18:16:43;;;;;;;41.10;19.63;;;-9.20;99.90;;;-11.59;93.96;102442.66;5002199;28;20053;-73
2022/12/17 18:19:21;;;;;;;37.13;18.23;;;-9.10;99.90;;;-11.42;94.99;102423.53;5001778;28;20041;-72
2022/12/17 18:21:48;;;;;;;61.35;28.70;;;-9.00;99.90;;;-11.21;95.42;102436.84;5002742;28;20022;-72
2022/12/17 18:24:21;;;;;;;34.90;16.85;;;-8.90;99.90;;;-11.09;96.09;102436.78;4991454;28;20037;-72
2022/12/17 18:26:49;;;;;;;39.20;19.02;;;-8.80;99.90;;;-11.07;96.68;102435.25;4984959;28;20654;-72
2022/12/17 18:29:25;;;;;;;44.70;19.33;;;-8.80;99.90;;;-11.04;97.38;102443.06;5003972;28;20029;-73
2022/12/17 18:31:51;;;;;;;32.40;14.95;;;-8.70;99.90;;;-11.04;97.96;102444.72;4991279;28;20120;-72
2022/12/17 18:34:21;;;;;;;28.48;14.82;;;-8.70;99.90;;;-11.05;98.25;102448.94;5018496;28;20041;-72
2022/12/17 18:36:48;;;;;;;27.50;14.43;;;-8.80;99.90;;;-11.11;99.35;102442.56;5019875;28;20037;-72
2022/12/17 18:39:18;;;;;;;26.15;13.55;;;-8.80;99.90;;;-11.14;98.81;102440.69;5003052;28;20133;-72
2022/12/17 18:44:32;;;;;;;31.27;16.27;;;-8.70;99.90;;;-11.04;99.75;102437.09;5003126;28;20057;-72
2022/12/17 18:46:58;;;;;;;29.40;14.52;;;-8.70;99.90;;;-11.08;99.31;102442.75;5000410;28;20041;-72
2022/12/17 18:49:25;;;;;;;29.40;15.82;;;-8.80;99.90;;;-11.18;99.87;102443.78;5001692;28;20371;-72
2022/12/17 18:51:53;;;;;;;34.03;15.45;;;-8.80;99.90;;;-11.36;98.82;102449.38;5002943;28;20546;-73
2022/12/17 18:54:29;;;;;;;34.88;16.63;;;-9.00;99.90;;;-11.37;98.58;102444.19;5002706;28;20733;-73
2022/12/17 18:56:56;;;;;;;27.52;14.98;;;-9.00;99.90;;;-11.40;98.14;102446.47;5019517;28;20041;-72
2022/12/17 18:59:25;;;;;;;30.08;15.35;;;-9.10;99.90;;;-11.41;98.16;102447.28;5020189;28;20034;-72
2022/12/17 19:01:53;;;;;;;38.90;17.25;;;-9.10;99.90;;;-11.44;97.20;102457.25;5000974;28;20026;-72
2022/12/17 19:04:20;;;;;;;37.38;18.42;;;-9.00;99.90;;;-11.32;98.13;102462.28;5000322;28;20054;-72
2022/12/17 19:06:47;;;;;;;40.25;18.13;;;-9.00;99.90;;;-11.24;97.66;102477.31;4990908;28;20061;-72
2022/12/17 19:09:37;;;;;;;42.65;19.67;;;-8.90;99.90;;;-11.14;98.63;102476.31;5020031;28;20049;-71
2022/12/17 19:12:11;;;;;;;33.22;16.25;;;-8.80;99.90;;;-11.04;98.85;102481.22;5007971;28;20058;-73
2022/12/17 19:14:37;;;;;;;40.90;18.38;;;-8.70;99.90;;;-10.92;100.00;102491.38;4991360;28;20034;-73
2022/12/17 19:17:04;;;;;;;46.33;20.90;;;-8.60;99.90;;;-10.84;100.00;102494.44;5001113;28;20165;-72
2022/12/17 19:19:32;;;;;;;46.13;21.60;;;-8.50;99.90;;;-10.80;100.00;102497.28;5000364;28;20510;-73
2022/12/17 19:21:59;;;;;;;39.72;18.98;;;-8.50;99.90;;;-10.81;100.00;102492.13;5000565;28;20124;-72
2022/12/17 19:24:27;;;;;;;34.15;14.65;;;-8.50;99.90;;;-10.88;100.00;102492.44;5003094;28;20069;-72
2022/12/17 19:26:56;;;;;;;38.42;19.13;;;-8.50;99.90;;;-10.88;100.00;102495.91;5013282;28;20402;-72
2022/12/17 19:29:25;;;;;;;38.88;19.85;;;-8.50;99.90;;;-10.82;100.00;102505.59;5006952;28;20034;-72
2022/12/17 19:31:51;;;;;;;37.55;18.67;;;-8.50;99.90;;;-10.80;100.00;102507.47;5022147;28;20053;-73
2022/12/17 19:34:21;;;;;;;36.22;16.75;;;-8.50;99.90;;;-10.77;100.00;102506.81;5023860;28;20034;-72
2022/12/17 19:36:47;;;;;;;38.38;18.25;;;-8.50;99.90;;;-10.83;100.00;102506.41;4994703;28;20021;-72
2022/12/17 19:39:18;;;;;;;38.05;18.83;;;-8.60;99.90;;;-10.96;100.00;102502.13;4988567;28;20034;-72
2022/12/17 19:41:45;;;;;;;41.88;19.20;;;-8.60;99.90;;;-11.00;99.86;102505.22;5022343;28;20033;-72
2022/12/17 19:44:16;;;;;;;33.50;16.10;;;-8.70;99.90;;;-10.96;100.00;102505.53;5005646;28;20521;-72
2022/12/17 19:46:46;;;;;;;486.70;27.55;;;-8.70;99.90;;;-11.05;99.32;102510.00;5004873;28;20129;-73
2022/12/17 19:49:17;;;;;;;50.63;19.33;;;-8.80;99.90;;;-11.19;98.32;102518.31;4993651;28;20065;-72
2022/12/17 19:51:43;;;;;;;32.00;16.70;;;-8.90;99.90;;;-11.31;98.03;102515.81;5004337;28;20022;-71
2022/12/17 19:54:16;;;;;;;36.85;17.67;;;-9.00;99.90;;;-11.41;98.06;102519.34;5004853;28;20030;-72
2022/12/17 19:56:45;;;;;;;37.55;18.00;;;-9.10;99.90;;;-11.54;97.39;102518.38;5024050;28;20801;-73
2022/12/17 19:59:12;;;;;;;53.47;24.38;;;-9.20;99.90;;;-11.66;97.35;102519.28;5023373;28;20387;-71
2022/12/17 20:01:47;;;;;;;99.35;40.92;;;-9.20;99.90;;;-11.65;97.40;102520.13;4992997;28;20044;-72
2022/12/17 20:04:17;;;;;;;;;;;-9.20;99.90;;;-11.61;97.24;102524.69;5010631;28;20037;-71
2022/12/17 20:06:44;;;;;;;50.58;19.08;;;-9.20;99.90;;;-11.62;97.24;102526.34;5019374;28;19909;-72
2022/12/17 20:09:11;;;;;;;48.75;22.55;;;-9.10;99.90;;;-11.49;97.62;102532.28;5002684;28;20108;-73
2022/12/17 20:11:38;;;;;;;77.00;32.78;;;-9.10;99.90;;;-11.44;97.73;102544.56;5004686;28;20034;-72
2022/12/17 20:14:12;;;;;;;86.90;35.88;;;-8.40;99.90;;;-11.36;98.43;102540.91;5003057;28;20033;-72
2022/12/17 20:16:45;;;;;;;39.45;17.17;;;-9.00;99.90;;;-11.37;98.32;102540.81;5006710;28;20037;-72
2022/12/17 20:19:29;;;;;;;40.72;19.27;;;-9.10;99.90;;;-11.43;98.20;102537.81;5016879;28;20045;-72
2022/12/17 20:21:56;;;;;;;38.83;17.90;;;-9.10;99.90;;;-11.53;98.10;102536.28;5020176;28;20021;-72
2022/12/17 20:24:29;;;;;;;80.82;33.97;;;-9.20;99.90;;;-11.56;98.09;102536.03;5003584;28;20041;-73
2022/12/17 20:27:02;;;;;;;54.38;23.63;;;-9.20;99.90;;;-11.57;97.49;102541.91;5004091;28;20050;-72
2022/12/17 20:29:28;;;;;;;67.63;28.73;;;-9.20;99.90;;;-11.58;97.12;102547.75;5007069;28;20026;-71
2022/12/17 20:32:03;;;;;;;49.55;21.77;;;-9.20;99.90;;;-11.57;96.33;102557.16;5019203;28;20402;-72
2022/12/17 20:34:35;;;;;;;44.40;19.40;;;-9.30;99.90;;;-11.66;97.08;102567.56;5011136;28;20026;-73
2022/12/17 20:37:07;;;;;;;57.92;23.48;;;-9.40;99.90;;;-11.84;95.65;102550.94;5010409;28;20525;-73
2022/12/17 20:39:36;;;;;;;78.85;36.05;;;-9.50;99.90;;;-11.88;95.88;102554.06;5001821;28;20068;-73
2022/12/17 20:42:02;;;;;;;64.50;29.45;;;-9.50;99.90;;;-11.83;95.89;102552.75;5021682;28;20053;-73
2022/12/17 20:44:28;;;;;;;53.30;24.60;;;-9.40;99.90;;;-11.80;95.58;102553.81;5020802;28;20091;-73
2022/12/17 20:46:53;;;;;;;43.50;20.52;;;-9.40;99.90;;;-11.72;96.55;102556.06;5021715;28;20038;-72
2022/12/17 20:49:22;;;;;;;45.03;19.00;;;-9.30;99.90;;;-11.64;96.72;102558.38;5000762;28;20057;-73
2022/12/17 20:51:51;;;;;;;59.33;25.77;;;-9.20;99.90;;;-11.53;97.90;102564.25;5000052;28;20486;-73
2022/12/17 20:54:24;;;;;;;38.67;18.15;;;-9.20;99.90;;;-11.59;97.26;102556.19;5020851;28;20046;-74
2022/12/17 20:56:53;;;;;;;37.75;17.23;;;-9.30;99.90;;;-11.65;98.03;102566.75;5002185;28;20040;-73
2022/12/17 20:59:22;;;;;;;50.72;21.88;;;-9.40;99.90;;;-11.76;96.80;102567.66;5003055;28;20042;-73
2022/12/17 21:01:51;;;;;;;56.63;24.13;;;-9.40;99.90;;;-11.86;96.31;102562.66;5000484;28;20124;-73
2022/12/17 21:04:20;;;;;;;84.40;34.88;;;-9.50;99.90;;;-11.87;97.59;102565.97;5019629;28;20033;-74
2022/12/17 21:06:47;;;;;;;47.90;21.27;;;-9.50;99.90;;;-11.82;97.01;102564.66;5022571;28;20033;-72
2022/12/17 21:09:16;;;;;;;52.53;21.00;;;-9.40;99.90;;;-11.74;96.81;102567.78;5002944;28;20465;-72
2022/12/17 21:11:42;;;;;;;65.90;28.13;;;-9.30;99.90;;;-11.69;97.44;102574.06;5033525;28;20034;-72
2022/12/17 21:14:15;;;;;;;51.30;22.40;;;-9.30;99.90;;;-11.58;98.83;102570.63;4991476;28;20045;-73
2022/12/17 21:16:45;;;;;;;57.75;24.30;;;-9.20;99.90;;;-11.50;98.88;102579.72;4991068;28;20063;-74
2022/12/17 21:19:17;;;;;;;48.30;21.40;;;-9.10;99.90;;;-11.45;99.48;102577.50;5002380;28;20100;-72
2022/12/17 21:21:44;;;;;;;42.97;19.40;;;-9.10;99.90;;;-11.50;99.27;102574.63;5001779;28;20044;-73
2022/12/17 21:24:13;;;;;;;52.90;22.83;;;-9.10;99.90;;;-11.42;99.81;102576.06;5003055;28;20042;-73
2022/12/17 21:26:42;;;;;;;47.55;21.08;;;-9.00;99.90;;;-11.36;99.97;102580.69;5003185;28;20521;-72
2022/12/17 21:29:09;;;;;;;56.80;22.23;;;-9.00;99.90;;;-11.32;99.95;102579.28;5018865;28;20577;-74
2022/12/17 21:31:41;;;;;;;51.58;20.25;;;-8.90;99.90;;;-11.26;100.00;102579.72;4991753;28;20375;-73
2022/12/17 21:34:22;;;;;;;51.95;21.60;;;-8.90;99.90;;;-11.17;100.00;102577.81;5002989;28;20060;-73
2022/12/17 21:36:51;;;;;;;72.57;26.48;;;-8.80;99.90;;;-11.08;100.00;102586.09;5019718;28;20398;-73
2022/12/17 21:39:20;;;;;;;61.35;26.58;;;-8.80;99.90;;;-10.98;100.00;102597.81;5006097;28;20041;-73
2022/12/17 21:44:50;;;;;;;57.65;22.92;;;-8.60;99.90;;;-10.94;100.00;102605.78;4988373;28;20109;-73
2022/12/17 21:47:16;;;;;;;61.03;25.85;;;-8.60;99.90;;;-10.91;100.00;102606.75;5021342;28;20132;-73
2022/12/17 21:49:42;;;;;;;59.20;23.85;;;-8.60;99.90;;;-10.96;100.00;102612.41;4999555;28;20160;-74
2022/12/17 21:52:17;;;;;;;64.78;27.55;;;-8.60;99.90;;;-10.97;100.00;102615.75;5001302;28;20383;-74
2022/12/17 21:54:43;;;;;;;69.78;27.48;;;-8.60;99.90;;;-10.92;100.00;102612.66;5004078;28;20033;-74
2022/12/17 21:57:09;;;;;;;58.95;25.35;;;-8.60;99.90;;;-10.96;100.00;102612.41;5020631;28;20105;-74
2022/12/17 21:59:34;;;;;;;70.35;27.20;;;-8.60;99.90;;;-10.87;100.00;102617.28;5018661;28;20487;-73
2022/12/17 22:02:06;;;;;;;71.68;29.15;;;-8.50;99.90;;;-10.78;100.00;102623.00;5000987;28;20026;-74
2022/12/17 22:04:32;;;;;;;72.80;28.83;;;-8.50;99.90;;;-10.76;100.00;102623.13;5022616;28;20430;-73
2022/12/17 22:06:58;;;;;;;79.75;29.27;;;-8.50;99.90;;;-10.78;100.00;102627.22;5001541;28;20025;-73
2022/12/17 22:09:24;;;;;;;79.20;29.60;;;-8.50;99.90;;;-10.76;100.00;102625.66;5018630;28;20088;-73
2022/12/17 22:14:01;;;;;;;77.40;29.23;;;-8.40;99.90;;;-10.75;100.00;102630.00;5003154;28;20044;-73
2022/12/17 22:14:41;;;;;;;73.35;28.95;;;-8.40;99.90;;;-10.69;100.00;102627.84;5004487;28;20619;-72
2022/12/17 22:17:07;;;;;;;78.03;29.48;;;-8.40;99.90;;;-10.66;100.00;102633.16;5005603;28;20038;-74
2022/12/17 22:19:33;;;;;;;93.47;31.00;;;-8.30;99.90;;;-10.56;100.00;102635.59;5018318;28;20418;-74
2022/12/17 22:21:58;;;;;;;117.25;32.22;;;-8.30;99.90;;;-10.48;100.00;102636.09;5003907;28;20037;-73
2022/12/17 22:24:24;;;;;;;366.23;40.85;;;-8.20;99.90;;;-10.42;100.00;102634.00;5001832;28;20030;-73
2022/12/17 22:26:58;;;;;;;223.05;34.20;;;-8.10;99.90;;;-10.37;100.00;102637.72;5020823;28;20025;-73
2022/12/17 22:34:58;;;;;;;520.35;37.92;;;-8.00;99.90;;;-10.36;100.00;102646.28;5007211;28;20088;-74
2022/12/17 22:37:24;;;;;;;494.77;44.72;;;-8.00;99.90;;;-10.33;100.00;102649.03;5001448;28;20463;-73
2022/12/17 22:39:50;;;;;;;539.42;41.90;;;-8.00;99.90;;;-10.34;100.00;102647.28;5022035;28;20399;-73
2022/12/17 22:45:06;;;;;;;581.15;54.80;;;-8.00;99.90;;;-10.38;100.00;102652.94;5019968;28;20151;-73
2022/12/17 22:47:32;;;;;;;492.15;42.97;;;-8.00;99.90;;;-10.42;100.00;102656.03;4990445;28;20409;-74
2022/12/17 22:49:57;;;;;;;460.42;41.50;;;-8.00;99.90;;;-10.45;100.00;102654.16;4999923;28;20034;-73
2022/12/17 22:52:23;;;;;;;561.58;42.22;;;-8.00;99.90;;;-10.47;100.00;102655.72;5003116;28;20080;-72
2022/12/17 22:54:49;;;;;;;415.42;37.35;;;-8.10;99.90;;;-10.50;100.00;102660.56;5009780;28;20033;-73
2022/12/17 22:57:15;;;;;;;458.42;42.42;;;-8.10;99.90;;;-10.48;100.00;102653.94;5004371;28;20542;-73
2022/12/17 22:59:41;;;;;;;450.10;41.45;;;-8.10;99.90;;;-10.51;100.00;102658.81;5002942;28;20068;-73
2022/12/17 23:02:09;;;;;;;391.30;39.83;;;-8.10;99.90;;;-10.54;100.00;102650.94;5022580;28;20040;-73
2022/12/17 23:04:34;;;;;;;389.35;37.30;;;-8.10;99.90;;;-10.57;100.00;102651.63;4997217;23;20399;-78
2022/12/17 23:07:01;;;;;;;502.55;44.65;;;-8.10;99.90;;;-10.60;100.00;102643.78;4968783;28;20035;-78
2022/12/17 23:09:27;;;;;;;525.67;42.90;;;-8.10;99.90;;;-10.59;100.00;102650.63;4960431;28;20092;-78
2022/12/17 23:11:52;;;;;;;527.85;39.95;;;-8.10;99.90;;;-10.55;100.00;102652.63;4983504;28;20023;-79
2022/12/17 23:14:18;;;;;;;553.17;46.70;;;-8.10;99.90;;;-10.47;100.00;102657.34;4967340;28;20039;-79
2022/12/17 23:16:45;;;;;;;622.50;44.35;;;-8.10;99.90;;;-10.49;100.00;102656.41;4983799;28;20038;-79
2022/12/17 23:19:11;;;;;;;452.52;40.53;;;-8.10;99.90;;;-10.47;100.00;102658.25;4982229;28;20094;-78
2022/12/17 23:21:37;;;;;;;531.47;40.78;;;-8.10;99.90;;;-10.45;100.00;102660.91;4968493;28;20045;-79
2022/12/17 23:24:04;;;;;;;528.67;41.47;;;-8.00;99.90;;;-10.42;100.00;102661.13;4985425;28;20027;-78
2022/12/17 23:26:34;;;;;;;401.80;38.42;;;-8.00;99.90;;;-10.36;100.00;102664.09;4982715;28;20037;-78